sensor_id;sensor_type;location;lat;lon;timestamp;P1;durP1;ratioP1;P2;durP2;ratioP2
4885;SDS011;2457;51.788;6.136;2022-12-18T00:02:03;23.57;;;12.83;;
4885;SDS011;2457;51.788;6.136;2022-12-18T00:04:30;22.87;;;13.00;;
4885;SDS011;2457;51.788;6.136;2022-12-18T00:06:57;23.20;;;12.90;;
4885;SDS011;2457;51.788;6.136;2022-12-18T00:09:24;18.37;;;11.70;;
4885;SDS011;2457;51.788;6.136;2022-12-18T00:11:52;21.67;;;11.70;;
4885;SDS011;2457;51.788;6.136;2022-12-18T00:14:19;21.40;;;11.80;;
4885;SDS011;2457;51.788;6.136;2022-12-18T00:16:46;22.50;;;11.20;;
4885;SDS011;2457;51.788;6.136;2022-12-18T00:19:14;19.70;;;11.60;;
4885;SDS011;2457;51.788;6.136;2022-12-18T00:21:42;21.33;;;11.60;;
4885;SDS011;2457;51.788;6.136;2022-12-18T00:24:10;19.80;;;12.07;;
4885;SDS011;2457;51.788;6.136;2022-12-18T00:26:38;19.80;;;11.57;;
4885;SDS011;2457;51.788;6.136;2022-12-18T00:29:11;19.90;;;10.50;;
4885;SDS011;2457;51.788;6.136;2022-12-18T00:31:34;19.23;;;10.57;;
4885;SDS011;2457;51.788;6.136;2022-12-18T00:34:01;19.27;;;10.70;;
4885;SDS011;2457;51.788;6.136;2022-12-18T00:36:30;21.03;;;11.33;;
4885;SDS011;2457;51.788;6.136;2022-12-18T00:41:33;18.07;;;10.57;;
4885;SDS011;2457;51.788;6.136;2022-12-18T00:44:18;21.50;;;11.67;;
4885;SDS011;2457;51.788;6.136;2022-12-18T00:46:46;19.60;;;10.50;;
4885;SDS011;2457;51.788;6.136;2022-12-18T00:49:17;21.10;;;11.33;;
4885;SDS011;2457;51.788;6.136;2022-12-18T00:51:45;19.53;;;11.30;;
4885;SDS011;2457;51.788;6.136;2022-12-18T00:54:12;19.83;;;10.53;;
4885;SDS011;2457;51.788;6.136;2022-12-18T00:56:40;17.23;;;9.90;;
4885;SDS011;2457;51.788;6.136;2022-12-18T00:59:07;19.73;;;10.53;;
4885;SDS011;2457;51.788;6.136;2022-12-18T01:01:34;16.83;;;10.00;;
4885;SDS011;2457;51.788;6.136;2022-12-18T01:04:02;21.73;;;10.60;;
4885;SDS011;2457;51.788;6.136;2022-12-18T01:06:29;23.60;;;9.57;;
4885;SDS011;2457;51.788;6.136;2022-12-18T01:08:57;18.30;;;11.10;;
4885;SDS011;2457;51.788;6.136;2022-12-18T01:11:25;16.23;;;10.00;;
4885;SDS011;2457;51.788;6.136;2022-12-18T01:13:53;17.50;;;9.70;;
4885;SDS011;2457;51.788;6.136;2022-12-18T01:16:21;17.60;;;10.00;;
4885;SDS011;2457;51.788;6.136;2022-12-18T01:18:50;19.00;;;9.33;;
4885;SDS011;2457;51.788;6.136;2022-12-18T01:21:17;19.47;;;9.80;;
4885;SDS011;2457;51.788;6.136;2022-12-18T01:23:44;15.70;;;9.10;;
4885;SDS011;2457;51.788;6.136;2022-12-18T01:26:12;16.13;;;9.07;;
4885;SDS011;2457;51.788;6.136;2022-12-18T01:28:40;18.70;;;9.40;;
4885;SDS011;2457;51.788;6.136;2022-12-18T01:31:12;15.83;;;9.53;;
4885;SDS011;2457;51.788;6.136;2022-12-18T01:33:36;15.23;;;8.83;;
4885;SDS011;2457;51.788;6.136;2022-12-18T01:36:04;14.83;;;8.80;;
4885;SDS011;2457;51.788;6.136;2022-12-18T01:38:31;17.67;;;9.70;;
4885;SDS011;2457;51.788;6.136;2022-12-18T01:40:59;17.00;;;8.97;;
4885;SDS011;2457;51.788;6.136;2022-12-18T01:46:12;17.30;;;9.27;;
4885;SDS011;2457;51.788;6.136;2022-12-18T01:48:40;14.90;;;8.30;;
4885;SDS011;2457;51.788;6.136;2022-12-18T01:51:08;18.03;;;9.10;;
4885;SDS011;2457;51.788;6.136;2022-12-18T01:53:36;16.03;;;9.50;;
4885;SDS011;2457;51.788;6.136;2022-12-18T01:56:04;15.33;;;8.60;;
4885;SDS011;2457;51.788;6.136;2022-12-18T02:01:12;11.67;;;7.53;;
4885;SDS011;2457;51.788;6.136;2022-12-18T02:03:42;17.17;;;8.97;;
4885;SDS011;2457;51.788;6.136;2022-12-18T02:06:12;16.70;;;8.90;;
4885;SDS011;2457;51.788;6.136;2022-12-18T02:08:54;15.27;;;7.83;;
4885;SDS011;2457;51.788;6.136;2022-12-18T02:11:34;17.70;;;8.90;;
4885;SDS011;2457;51.788;6.136;2022-12-18T02:16:51;14.53;;;7.90;;
4885;SDS011;2457;51.788;6.136;2022-12-18T02:24:47;11.77;;;7.30;;
4885;SDS011;2457;51.788;6.136;2022-12-18T02:27:10;11.20;;;6.80;;
4885;SDS011;2457;51.788;6.136;2022-12-18T02:29:43;14.87;;;7.87;;
4885;SDS011;2457;51.788;6.136;2022-12-18T02:32:08;13.20;;;7.77;;
4885;SDS011;2457;51.788;6.136;2022-12-18T02:34:36;14.20;;;7.23;;
4885;SDS011;2457;51.788;6.136;2022-12-18T02:37:04;12.07;;;6.30;;
4885;SDS011;2457;51.788;6.136;2022-12-18T02:39:33;15.67;;;9.80;;
4885;SDS011;2457;51.788;6.136;2022-12-18T02:42:01;17.90;;;7.07;;
4885;SDS011;2457;51.788;6.136;2022-12-18T02:44:30;12.33;;;6.70;;
4885;SDS011;2457;51.788;6.136;2022-12-18T02:46:58;13.80;;;7.50;;
4885;SDS011;2457;51.788;6.136;2022-12-18T02:49:27;16.33;;;8.13;;
4885;SDS011;2457;51.788;6.136;2022-12-18T02:52:01;13.30;;;6.60;;
4885;SDS011;2457;51.788;6.136;2022-12-18T02:54:26;13.87;;;7.83;;
4885;SDS011;2457;51.788;6.136;2022-12-18T02:56:51;11.67;;;6.20;;
4885;SDS011;2457;51.788;6.136;2022-12-18T02:59:36;14.23;;;7.07;;
4885;SDS011;2457;51.788;6.136;2022-12-18T03:02:02;13.37;;;7.23;;
4885;SDS011;2457;51.788;6.136;2022-12-18T03:04:34;14.50;;;6.90;;
4885;SDS011;2457;51.788;6.136;2022-12-18T03:07:02;14.30;;;6.83;;
4885;SDS011;2457;51.788;6.136;2022-12-18T03:09:38;14.60;;;7.60;;
4885;SDS011;2457;51.788;6.136;2022-12-18T03:12:10;11.03;;;6.60;;
4885;SDS011;2457;51.788;6.136;2022-12-18T03:14:54;13.47;;;6.23;;
4885;SDS011;2457;51.788;6.136;2022-12-18T03:17:18;11.77;;;7.00;;
4885;SDS011;2457;51.788;6.136;2022-12-18T03:19:46;14.40;;;7.00;;
4885;SDS011;2457;51.788;6.136;2022-12-18T03:22:14;14.00;;;6.77;;
4885;SDS011;2457;51.788;6.136;2022-12-18T03:24:43;13.10;;;6.67;;
4885;SDS011;2457;51.788;6.136;2022-12-18T03:27:12;14.77;;;7.00;;
4885;SDS011;2457;51.788;6.136;2022-12-18T03:29:48;10.90;;;6.50;;
4885;SDS011;2457;51.788;6.136;2022-12-18T03:32:13;12.20;;;6.77;;
4885;SDS011;2457;51.788;6.136;2022-12-18T03:34:40;12.30;;;6.70;;
4885;SDS011;2457;51.788;6.136;2022-12-18T03:37:08;12.70;;;7.10;;
4885;SDS011;2457;51.788;6.136;2022-12-18T03:39:36;12.77;;;7.57;;
4885;SDS011;2457;51.788;6.136;2022-12-18T03:44:57;11.03;;;6.07;;
4885;SDS011;2457;51.788;6.136;2022-12-18T03:47:05;11.77;;;6.27;;
4885;SDS011;2457;51.788;6.136;2022-12-18T03:52:13;13.13;;;7.10;;
4885;SDS011;2457;51.788;6.136;2022-12-18T03:54:40;17.43;;;7.20;;
4885;SDS011;2457;51.788;6.136;2022-12-18T03:57:18;11.47;;;6.20;;
4885;SDS011;2457;51.788;6.136;2022-12-18T03:59:43;11.40;;;6.70;;
4885;SDS011;2457;51.788;6.136;2022-12-18T04:02:10;12.90;;;6.53;;
4885;SDS011;2457;51.788;6.136;2022-12-18T04:04:38;13.60;;;6.30;;
4885;SDS011;2457;51.788;6.136;2022-12-18T04:07:06;12.73;;;6.60;;
4885;SDS011;2457;51.788;6.136;2022-12-18T04:09:34;12.57;;;5.80;;
4885;SDS011;2457;51.788;6.136;2022-12-18T04:12:03;10.50;;;5.93;;
4885;SDS011;2457;51.788;6.136;2022-12-18T04:14:30;18.40;;;6.80;;
4885;SDS011;2457;51.788;6.136;2022-12-18T04:16:59;10.90;;;6.23;;
4885;SDS011;2457;51.788;6.136;2022-12-18T04:19:31;14.33;;;6.50;;
4885;SDS011;2457;51.788;6.136;2022-12-18T04:21:55;11.23;;;6.30;;
4885;SDS011;2457;51.788;6.136;2022-12-18T04:24:22;15.90;;;7.13;;
4885;SDS011;2457;51.788;6.136;2022-12-18T04:26:49;11.77;;;6.43;;
4885;SDS011;2457;51.788;6.136;2022-12-18T04:29:17;12.00;;;6.13;;
4885;SDS011;2457;51.788;6.136;2022-12-18T04:31:44;12.13;;;6.37;;
4885;SDS011;2457;51.788;6.136;2022-12-18T04:34:11;11.87;;;6.63;;
4885;SDS011;2457;51.788;6.136;2022-12-18T04:36:38;11.60;;;6.10;;
4885;SDS011;2457;51.788;6.136;2022-12-18T04:39:06;12.00;;;6.57;;
4885;SDS011;2457;51.788;6.136;2022-12-18T04:41:33;12.33;;;6.43;;
4885;SDS011;2457;51.788;6.136;2022-12-18T04:44:00;14.77;;;6.33;;
4885;SDS011;2457;51.788;6.136;2022-12-18T04:46:28;11.40;;;6.40;;
4885;SDS011;2457;51.788;6.136;2022-12-18T04:48:55;12.53;;;6.17;;
4885;SDS011;2457;51.788;6.136;2022-12-18T04:51:22;11.23;;;6.27;;
4885;SDS011;2457;51.788;6.136;2022-12-18T04:53:49;10.80;;;6.27;;
4885;SDS011;2457;51.788;6.136;2022-12-18T04:56:17;11.27;;;5.70;;
4885;SDS011;2457;51.788;6.136;2022-12-18T04:58:44;9.63;;;5.93;;
4885;SDS011;2457;51.788;6.136;2022-12-18T05:01:12;12.23;;;6.63;;
4885;SDS011;2457;51.788;6.136;2022-12-18T05:03:39;11.00;;;6.50;;
4885;SDS011;2457;51.788;6.136;2022-12-18T05:06:07;12.20;;;6.50;;
4885;SDS011;2457;51.788;6.136;2022-12-18T05:08:34;13.30;;;6.70;;
4885;SDS011;2457;51.788;6.136;2022-12-18T05:11:05;10.87;;;5.80;;
4885;SDS011;2457;51.788;6.136;2022-12-18T05:13:33;13.37;;;6.90;;
4885;SDS011;2457;51.788;6.136;2022-12-18T05:16:00;10.97;;;6.13;;
4885;SDS011;2457;51.788;6.136;2022-12-18T05:18:28;11.07;;;5.87;;
4885;SDS011;2457;51.788;6.136;2022-12-18T05:20:55;11.20;;;5.93;;
4885;SDS011;2457;51.788;6.136;2022-12-18T05:23:23;11.30;;;6.80;;
4885;SDS011;2457;51.788;6.136;2022-12-18T05:25:57;12.07;;;7.17;;
4885;SDS011;2457;51.788;6.136;2022-12-18T05:28:25;12.00;;;6.53;;
4885;SDS011;2457;51.788;6.136;2022-12-18T05:30:54;14.13;;;6.40;;
4885;SDS011;2457;51.788;6.136;2022-12-18T05:33:22;11.07;;;6.70;;
4885;SDS011;2457;51.788;6.136;2022-12-18T05:35:51;11.23;;;6.40;;
4885;SDS011;2457;51.788;6.136;2022-12-18T05:38:18;9.30;;;5.40;;
4885;SDS011;2457;51.788;6.136;2022-12-18T05:40:47;13.97;;;6.03;;
4885;SDS011;2457;51.788;6.136;2022-12-18T05:43:14;12.37;;;5.90;;
4885;SDS011;2457;51.788;6.136;2022-12-18T05:45:41;10.80;;;5.70;;
4885;SDS011;2457;51.788;6.136;2022-12-18T05:48:12;10.50;;;5.90;;
4885;SDS011;2457;51.788;6.136;2022-12-18T05:50:40;10.43;;;5.57;;
4885;SDS011;2457;51.788;6.136;2022-12-18T05:53:08;10.87;;;5.97;;
4885;SDS011;2457;51.788;6.136;2022-12-18T05:55:36;12.20;;;6.90;;
4885;SDS011;2457;51.788;6.136;2022-12-18T05:58:03;11.17;;;6.00;;
4885;SDS011;2457;51.788;6.136;2022-12-18T06:00:32;17.07;;;6.30;;
4885;SDS011;2457;51.788;6.136;2022-12-18T06:03:01;9.93;;;5.47;;
4885;SDS011;2457;51.788;6.136;2022-12-18T06:05:29;10.50;;;5.93;;
4885;SDS011;2457;51.788;6.136;2022-12-18T06:07:56;10.47;;;6.17;;
4885;SDS011;2457;51.788;6.136;2022-12-18T06:10:23;13.03;;;6.80;;
4885;SDS011;2457;51.788;6.136;2022-12-18T06:12:50;9.90;;;5.40;;
4885;SDS011;2457;51.788;6.136;2022-12-18T06:15:18;10.67;;;6.40;;
4885;SDS011;2457;51.788;6.136;2022-12-18T06:17:45;10.97;;;6.47;;
4885;SDS011;2457;51.788;6.136;2022-12-18T06:20:12;11.37;;;5.73;;
4885;SDS011;2457;51.788;6.136;2022-12-18T06:22:39;12.27;;;6.17;;
4885;SDS011;2457;51.788;6.136;2022-12-18T06:25:07;11.10;;;6.50;;
4885;SDS011;2457;51.788;6.136;2022-12-18T06:27:34;14.73;;;6.40;;
4885;SDS011;2457;51.788;6.136;2022-12-18T06:30:02;12.57;;;6.17;;
4885;SDS011;2457;51.788;6.136;2022-12-18T06:32:29;9.80;;;5.70;;
4885;SDS011;2457;51.788;6.136;2022-12-18T06:34:57;10.37;;;5.80;;
4885;SDS011;2457;51.788;6.136;2022-12-18T06:37:24;10.17;;;6.10;;
4885;SDS011;2457;51.788;6.136;2022-12-18T06:39:52;11.40;;;6.47;;
4885;SDS011;2457;51.788;6.136;2022-12-18T06:42:20;11.20;;;5.63;;
4885;SDS011;2457;51.788;6.136;2022-12-18T06:44:47;12.20;;;6.47;;
4885;SDS011;2457;51.788;6.136;2022-12-18T06:47:14;10.30;;;5.70;;
4885;SDS011;2457;51.788;6.136;2022-12-18T06:49:42;9.30;;;5.37;;
4885;SDS011;2457;51.788;6.136;2022-12-18T06:52:10;10.93;;;5.80;;
4885;SDS011;2457;51.788;6.136;2022-12-18T06:54:37;12.57;;;5.30;;
4885;SDS011;2457;51.788;6.136;2022-12-18T06:57:04;10.17;;;5.53;;
4885;SDS011;2457;51.788;6.136;2022-12-18T06:59:32;9.50;;;5.90;;
4885;SDS011;2457;51.788;6.136;2022-12-18T07:01:59;10.60;;;6.20;;
4885;SDS011;2457;51.788;6.136;2022-12-18T07:04:27;10.90;;;5.40;;
4885;SDS011;2457;51.788;6.136;2022-12-18T07:06:55;11.90;;;5.90;;
4885;SDS011;2457;51.788;6.136;2022-12-18T07:09:23;8.83;;;5.10;;
4885;SDS011;2457;51.788;6.136;2022-12-18T07:11:50;10.68;;;5.72;;
4885;SDS011;2457;51.788;6.136;2022-12-18T07:14:18;8.60;;;5.23;;
4885;SDS011;2457;51.788;6.136;2022-12-18T07:16:45;9.80;;;5.57;;
4885;SDS011;2457;51.788;6.136;2022-12-18T07:19:12;9.13;;;5.30;;
4885;SDS011;2457;51.788;6.136;2022-12-18T07:21:40;10.40;;;5.63;;
4885;SDS011;2457;51.788;6.136;2022-12-18T07:24:07;9.60;;;5.33;;
4885;SDS011;2457;51.788;6.136;2022-12-18T07:26:34;8.70;;;5.00;;
4885;SDS011;2457;51.788;6.136;2022-12-18T07:29:02;13.20;;;5.50;;
4885;SDS011;2457;51.788;6.136;2022-12-18T07:31:29;9.47;;;4.90;;
4885;SDS011;2457;51.788;6.136;2022-12-18T07:33:56;7.93;;;4.80;;
4885;SDS011;2457;51.788;6.136;2022-12-18T07:36:23;8.80;;;5.00;;
4885;SDS011;2457;51.788;6.136;2022-12-18T07:38:51;11.83;;;5.77;;
4885;SDS011;2457;51.788;6.136;2022-12-18T07:41:19;12.13;;;4.83;;
4885;SDS011;2457;51.788;6.136;2022-12-18T07:43:46;10.53;;;5.30;;
4885;SDS011;2457;51.788;6.136;2022-12-18T07:46:14;9.93;;;4.90;;
4885;SDS011;2457;51.788;6.136;2022-12-18T07:48:42;10.43;;;5.13;;
4885;SDS011;2457;51.788;6.136;2022-12-18T07:51:12;14.10;;;5.93;;
4885;SDS011;2457;51.788;6.136;2022-12-18T07:53:39;9.13;;;5.13;;
4885;SDS011;2457;51.788;6.136;2022-12-18T07:56:10;9.57;;;4.67;;
4885;SDS011;2457;51.788;6.136;2022-12-18T07:58:37;9.23;;;5.10;;
4885;SDS011;2457;51.788;6.136;2022-12-18T08:01:05;10.80;;;5.40;;
4885;SDS011;2457;51.788;6.136;2022-12-18T08:03:33;9.27;;;5.27;;
4885;SDS011;2457;51.788;6.136;2022-12-18T08:06:01;10.67;;;5.33;;
4885;SDS011;2457;51.788;6.136;2022-12-18T08:08:28;8.27;;;4.57;;
4885;SDS011;2457;51.788;6.136;2022-12-18T08:10:56;10.83;;;4.60;;
4885;SDS011;2457;51.788;6.136;2022-12-18T08:13:24;10.23;;;4.97;;
4885;SDS011;2457;51.788;6.136;2022-12-18T08:16:01;10.73;;;5.53;;
4885;SDS011;2457;51.788;6.136;2022-12-18T08:18:29;10.23;;;4.93;;
4885;SDS011;2457;51.788;6.136;2022-12-18T08:20:56;9.73;;;5.10;;
4885;SDS011;2457;51.788;6.136;2022-12-18T08:23:23;9.20;;;4.97;;
4885;SDS011;2457;51.788;6.136;2022-12-18T08:25:51;10.03;;;4.90;;
4885;SDS011;2457;51.788;6.136;2022-12-18T08:28:18;11.60;;;4.57;;
4885;SDS011;2457;51.788;6.136;2022-12-18T08:30:45;10.00;;;5.67;;
4885;SDS011;2457;51.788;6.136;2022-12-18T08:33:12;10.77;;;5.10;;
4885;SDS011;2457;51.788;6.136;2022-12-18T08:35:40;10.30;;;4.77;;
4885;SDS011;2457;51.788;6.136;2022-12-18T08:38:07;10.00;;;5.13;;
4885;SDS011;2457;51.788;6.136;2022-12-18T08:40:34;9.17;;;4.83;;
4885;SDS011;2457;51.788;6.136;2022-12-18T08:43:02;7.33;;;4.63;;
4885;SDS011;2457;51.788;6.136;2022-12-18T08:45:47;7.93;;;4.60;;
4885;SDS011;2457;51.788;6.136;2022-12-18T08:48:14;7.53;;;4.27;;
4885;SDS011;2457;51.788;6.136;2022-12-18T08:50:41;12.97;;;5.30;;
4885;SDS011;2457;51.788;6.136;2022-12-18T08:53:09;9.87;;;5.07;;
4885;SDS011;2457;51.788;6.136;2022-12-18T08:55:36;9.60;;;4.73;;
4885;SDS011;2457;51.788;6.136;2022-12-18T08:58:03;8.37;;;5.07;;
4885;SDS011;2457;51.788;6.136;2022-12-18T09:00:30;8.30;;;4.27;;
4885;SDS011;2457;51.788;6.136;2022-12-18T09:02:58;8.70;;;4.70;;
4885;SDS011;2457;51.788;6.136;2022-12-18T09:05:25;9.83;;;4.63;;
4885;SDS011;2457;51.788;6.136;2022-12-18T09:07:52;8.27;;;4.83;;
4885;SDS011;2457;51.788;6.136;2022-12-18T09:10:19;10.30;;;5.50;;
4885;SDS011;2457;51.788;6.136;2022-12-18T09:12:47;9.90;;;4.80;;
4885;SDS011;2457;51.788;6.136;2022-12-18T09:15:14;11.10;;;4.80;;
4885;SDS011;2457;51.788;6.136;2022-12-18T09:17:41;7.90;;;4.63;;
4885;SDS011;2457;51.788;6.136;2022-12-18T09:20:09;9.60;;;4.77;;
4885;SDS011;2457;51.788;6.136;2022-12-18T09:22:36;8.07;;;5.03;;
4885;SDS011;2457;51.788;6.136;2022-12-18T09:25:04;8.70;;;4.70;;
4885;SDS011;2457;51.788;6.136;2022-12-18T09:27:33;8.90;;;4.70;;
4885;SDS011;2457;51.788;6.136;2022-12-18T09:30:00;11.83;;;5.10;;
4885;SDS011;2457;51.788;6.136;2022-12-18T09:32:28;11.63;;;5.57;;
4885;SDS011;2457;51.788;6.136;2022-12-18T09:34:55;10.43;;;4.80;;
4885;SDS011;2457;51.788;6.136;2022-12-18T09:37:22;7.70;;;4.73;;
4885;SDS011;2457;51.788;6.136;2022-12-18T09:39:50;10.30;;;5.47;;
4885;SDS011;2457;51.788;6.136;2022-12-18T09:42:21;8.17;;;4.67;;
4885;SDS011;2457;51.788;6.136;2022-12-18T09:44:48;10.43;;;5.33;;
4885;SDS011;2457;51.788;6.136;2022-12-18T09:47:18;10.00;;;5.33;;
4885;SDS011;2457;51.788;6.136;2022-12-18T09:49:47;12.70;;;4.63;;
4885;SDS011;2457;51.788;6.136;2022-12-18T09:52:34;8.00;;;4.83;;
4885;SDS011;2457;51.788;6.136;2022-12-18T09:54:51;8.33;;;4.90;;
4885;SDS011;2457;51.788;6.136;2022-12-18T09:57:17;11.03;;;6.10;;
4885;SDS011;2457;51.788;6.136;2022-12-18T09:59:46;10.23;;;5.47;;
4885;SDS011;2457;51.788;6.136;2022-12-18T10:02:14;8.60;;;5.13;;
4885;SDS011;2457;51.788;6.136;2022-12-18T10:04:41;12.67;;;6.30;;
4885;SDS011;2457;51.788;6.136;2022-12-18T10:07:24;11.07;;;5.30;;
4885;SDS011;2457;51.788;6.136;2022-12-18T10:09:55;10.10;;;5.40;;
4885;SDS011;2457;51.788;6.136;2022-12-18T10:14:52;9.87;;;5.47;;
4885;SDS011;2457;51.788;6.136;2022-12-18T10:17:37;11.00;;;5.13;;
4885;SDS011;2457;51.788;6.136;2022-12-18T10:20:13;12.43;;;5.10;;
4885;SDS011;2457;51.788;6.136;2022-12-18T10:27:41;10.90;;;5.20;;
4885;SDS011;2457;51.788;6.136;2022-12-18T10:30:12;11.20;;;5.27;;
4885;SDS011;2457;51.788;6.136;2022-12-18T10:32:37;11.20;;;5.73;;
4885;SDS011;2457;51.788;6.136;2022-12-18T10:35:04;10.10;;;5.57;;
4885;SDS011;2457;51.788;6.136;2022-12-18T10:37:32;8.77;;;5.00;;
4885;SDS011;2457;51.788;6.136;2022-12-18T10:40:12;10.63;;;5.93;;
4885;SDS011;2457;51.788;6.136;2022-12-18T10:42:40;8.87;;;5.40;;
4885;SDS011;2457;51.788;6.136;2022-12-18T10:45:14;9.13;;;4.97;;
4885;SDS011;2457;51.788;6.136;2022-12-18T10:47:45;10.90;;;4.97;;
4885;SDS011;2457;51.788;6.136;2022-12-18T10:50:24;9.47;;;4.90;;
4885;SDS011;2457;51.788;6.136;2022-12-18T10:52:52;11.63;;;6.30;;
4885;SDS011;2457;51.788;6.136;2022-12-18T10:55:15;9.83;;;5.60;;
4885;SDS011;2457;51.788;6.136;2022-12-18T10:57:43;9.90;;;5.30;;
4885;SDS011;2457;51.788;6.136;2022-12-18T11:02:48;10.77;;;6.30;;
4885;SDS011;2457;51.788;6.136;2022-12-18T11:05:27;10.70;;;6.00;;
4885;SDS011;2457;51.788;6.136;2022-12-18T11:07:50;11.57;;;5.70;;
4885;SDS011;2457;51.788;6.136;2022-12-18T11:10:20;9.80;;;5.53;;
4885;SDS011;2457;51.788;6.136;2022-12-18T11:12:47;10.20;;;5.50;;
4885;SDS011;2457;51.788;6.136;2022-12-18T11:15:26;10.90;;;5.93;;
4885;SDS011;2457;51.788;6.136;2022-12-18T11:17:52;10.63;;;6.03;;
4885;SDS011;2457;51.788;6.136;2022-12-18T11:20:34;14.00;;;6.10;;
4885;SDS011;2457;51.788;6.136;2022-12-18T11:23:01;11.20;;;5.73;;
4885;SDS011;2457;51.788;6.136;2022-12-18T11:25:30;10.90;;;5.50;;
4885;SDS011;2457;51.788;6.136;2022-12-18T11:28:01;11.27;;;6.73;;
4885;SDS011;2457;51.788;6.136;2022-12-18T11:30:34;11.70;;;6.27;;
4885;SDS011;2457;51.788;6.136;2022-12-18T11:35:37;12.83;;;6.67;;
4885;SDS011;2457;51.788;6.136;2022-12-18T11:38:06;13.10;;;6.60;;
4885;SDS011;2457;51.788;6.136;2022-12-18T11:40:35;13.00;;;5.53;;
4885;SDS011;2457;51.788;6.136;2022-12-18T11:43:07;12.90;;;5.87;;
4885;SDS011;2457;51.788;6.136;2022-12-18T11:45:35;8.60;;;5.40;;
4885;SDS011;2457;51.788;6.136;2022-12-18T11:48:26;11.80;;;5.77;;
4885;SDS011;2457;51.788;6.136;2022-12-18T11:50:51;13.43;;;6.70;;
4885;SDS011;2457;51.788;6.136;2022-12-18T11:53:19;10.33;;;5.77;;
4885;SDS011;2457;51.788;6.136;2022-12-18T11:55:50;12.07;;;6.30;;
4885;SDS011;2457;51.788;6.136;2022-12-18T11:58:35;12.00;;;5.83;;
4885;SDS011;2457;51.788;6.136;2022-12-18T12:03:47;12.97;;;6.87;;
4885;SDS011;2457;51.788;6.136;2022-12-18T12:06:27;11.43;;;6.43;;
4885;SDS011;2457;51.788;6.136;2022-12-18T12:11:49;13.93;;;6.80;;
4885;SDS011;2457;51.788;6.136;2022-12-18T12:14:17;12.73;;;6.07;;
4885;SDS011;2457;51.788;6.136;2022-12-18T12:19:30;12.20;;;6.27;;
4885;SDS011;2457;51.788;6.136;2022-12-18T12:22:03;11.40;;;6.20;;
4885;SDS011;2457;51.788;6.136;2022-12-18T12:24:51;17.23;;;6.07;;
4885;SDS011;2457;51.788;6.136;2022-12-18T12:27:03;13.63;;;5.70;;
4885;SDS011;2457;51.788;6.136;2022-12-18T12:34:49;12.63;;;6.73;;
4885;SDS011;2457;51.788;6.136;2022-12-18T12:39:43;12.37;;;6.57;;
4885;SDS011;2457;51.788;6.136;2022-12-18T12:42:26;10.83;;;5.67;;
4885;SDS011;2457;51.788;6.136;2022-12-18T12:45:09;13.70;;;7.07;;
4885;SDS011;2457;51.788;6.136;2022-12-18T12:47:38;13.87;;;6.60;;
4885;SDS011;2457;51.788;6.136;2022-12-18T12:50:06;11.70;;;6.07;;
4885;SDS011;2457;51.788;6.136;2022-12-18T12:52:42;11.60;;;6.10;;
4885;SDS011;2457;51.788;6.136;2022-12-18T12:55:13;11.47;;;5.83;;
4885;SDS011;2457;51.788;6.136;2022-12-18T12:57:38;13.30;;;6.83;;
4885;SDS011;2457;51.788;6.136;2022-12-18T13:02:38;10.97;;;5.67;;
4885;SDS011;2457;51.788;6.136;2022-12-18T13:07:35;10.70;;;6.10;;
4885;SDS011;2457;51.788;6.136;2022-12-18T13:10:12;13.00;;;7.07;;
4885;SDS011;2457;51.788;6.136;2022-12-18T13:12:56;14.10;;;6.53;;
4885;SDS011;2457;51.788;6.136;2022-12-18T13:15:25;10.50;;;6.20;;
4885;SDS011;2457;51.788;6.136;2022-12-18T13:20:42;14.40;;;7.73;;
4885;SDS011;2457;51.788;6.136;2022-12-18T13:25:53;12.23;;;5.50;;
4885;SDS011;2457;51.788;6.136;2022-12-18T13:31:02;12.63;;;6.60;;
4885;SDS011;2457;51.788;6.136;2022-12-18T13:33:34;13.17;;;6.47;;
4885;SDS011;2457;51.788;6.136;2022-12-18T13:36:02;13.53;;;6.97;;
4885;SDS011;2457;51.788;6.136;2022-12-18T13:38:33;11.40;;;5.80;;
4885;SDS011;2457;51.788;6.136;2022-12-18T13:43:33;14.17;;;6.33;;
4885;SDS011;2457;51.788;6.136;2022-12-18T13:46:01;13.67;;;7.03;;
4885;SDS011;2457;51.788;6.136;2022-12-18T13:48:29;12.03;;;6.43;;
4885;SDS011;2457;51.788;6.136;2022-12-18T13:51:05;15.53;;;6.57;;
4885;SDS011;2457;51.788;6.136;2022-12-18T13:53:34;9.80;;;6.07;;
4885;SDS011;2457;51.788;6.136;2022-12-18T13:56:02;10.47;;;6.10;;
4885;SDS011;2457;51.788;6.136;2022-12-18T13:58:29;13.93;;;6.33;;
4885;SDS011;2457;51.788;6.136;2022-12-18T14:00:57;13.20;;;7.10;;
4885;SDS011;2457;51.788;6.136;2022-12-18T14:03:26;13.97;;;6.87;;
4885;SDS011;2457;51.788;6.136;2022-12-18T14:05:59;13.30;;;7.07;;
4885;SDS011;2457;51.788;6.136;2022-12-18T14:08:23;12.83;;;7.20;;
4885;SDS011;2457;51.788;6.136;2022-12-18T14:10:52;13.13;;;7.10;;
4885;SDS011;2457;51.788;6.136;2022-12-18T14:13:24;11.50;;;6.90;;
4885;SDS011;2457;51.788;6.136;2022-12-18T14:15:51;14.93;;;7.07;;
4885;SDS011;2457;51.788;6.136;2022-12-18T14:18:53;14.20;;;7.60;;
4885;SDS011;2457;51.788;6.136;2022-12-18T14:20:57;15.17;;;7.10;;
4885;SDS011;2457;51.788;6.136;2022-12-18T14:23:29;12.50;;;7.00;;
4885;SDS011;2457;51.788;6.136;2022-12-18T14:25:57;16.30;;;7.90;;
4885;SDS011;2457;51.788;6.136;2022-12-18T14:28:24;14.90;;;8.30;;
4885;SDS011;2457;51.788;6.136;2022-12-18T14:30:52;13.23;;;7.40;;
4885;SDS011;2457;51.788;6.136;2022-12-18T14:33:22;14.60;;;7.33;;
4885;SDS011;2457;51.788;6.136;2022-12-18T14:38:26;16.73;;;7.90;;
4885;SDS011;2457;51.788;6.136;2022-12-18T14:40:57;14.53;;;7.77;;
4885;SDS011;2457;51.788;6.136;2022-12-18T14:43:23;14.07;;;7.83;;
4885;SDS011;2457;51.788;6.136;2022-12-18T14:45:50;14.10;;;8.33;;
4885;SDS011;2457;51.788;6.136;2022-12-18T14:48:37;14.13;;;7.20;;
4885;SDS011;2457;51.788;6.136;2022-12-18T14:53:37;15.73;;;7.90;;
4885;SDS011;2457;51.788;6.136;2022-12-18T14:56:18;14.70;;;8.10;;
4885;SDS011;2457;51.788;6.136;2022-12-18T14:58:47;13.80;;;7.27;;
4885;SDS011;2457;51.788;6.136;2022-12-18T15:01:18;14.37;;;7.77;;
4885;SDS011;2457;51.788;6.136;2022-12-18T15:03:46;16.17;;;7.97;;
4885;SDS011;2457;51.788;6.136;2022-12-18T15:06:17;14.20;;;8.60;;
4885;SDS011;2457;51.788;6.136;2022-12-18T15:08:44;15.90;;;8.03;;
4885;SDS011;2457;51.788;6.136;2022-12-18T15:11:28;14.67;;;8.57;;
4885;SDS011;2457;51.788;6.136;2022-12-18T15:13:57;14.93;;;7.17;;
4885;SDS011;2457;51.788;6.136;2022-12-18T15:16:24;17.37;;;8.27;;
4885;SDS011;2457;51.788;6.136;2022-12-18T15:18:51;15.47;;;8.10;;
4885;SDS011;2457;51.788;6.136;2022-12-18T15:21:20;13.90;;;7.73;;
4885;SDS011;2457;51.788;6.136;2022-12-18T15:23:48;16.10;;;8.03;;
4885;SDS011;2457;51.788;6.136;2022-12-18T15:26:18;17.50;;;8.40;;
4885;SDS011;2457;51.788;6.136;2022-12-18T15:28:49;16.27;;;7.90;;
4885;SDS011;2457;51.788;6.136;2022-12-18T15:36:22;14.70;;;8.00;;
4885;SDS011;2457;51.788;6.136;2022-12-18T15:38:49;16.53;;;8.53;;
4885;SDS011;2457;51.788;6.136;2022-12-18T15:41:19;14.20;;;7.60;;
4885;SDS011;2457;51.788;6.136;2022-12-18T15:43:46;16.00;;;8.70;;
4885;SDS011;2457;51.788;6.136;2022-12-18T15:46:14;15.67;;;8.80;;
4885;SDS011;2457;51.788;6.136;2022-12-18T15:48:43;14.60;;;8.90;;
4885;SDS011;2457;51.788;6.136;2022-12-18T15:51:17;17.33;;;9.33;;
4885;SDS011;2457;51.788;6.136;2022-12-18T15:53:46;14.03;;;8.10;;
4885;SDS011;2457;51.788;6.136;2022-12-18T15:56:14;13.47;;;7.83;;
4885;SDS011;2457;51.788;6.136;2022-12-18T15:59:00;14.30;;;8.17;;
4885;SDS011;2457;51.788;6.136;2022-12-18T16:01:29;16.93;;;9.40;;
4885;SDS011;2457;51.788;6.136;2022-12-18T16:03:56;16.70;;;9.07;;
4885;SDS011;2457;51.788;6.136;2022-12-18T16:06:23;16.83;;;9.17;;
4885;SDS011;2457;51.788;6.136;2022-12-18T16:08:51;18.30;;;10.20;;
4885;SDS011;2457;51.788;6.136;2022-12-18T16:11:25;17.63;;;9.47;;
4885;SDS011;2457;51.788;6.136;2022-12-18T16:14:22;17.07;;;9.73;;
4885;SDS011;2457;51.788;6.136;2022-12-18T16:16:50;17.43;;;9.30;;
4885;SDS011;2457;51.788;6.136;2022-12-18T16:19:18;16.67;;;9.20;;
4885;SDS011;2457;51.788;6.136;2022-12-18T16:21:47;17.47;;;8.60;;
4885;SDS011;2457;51.788;6.136;2022-12-18T16:24:16;17.90;;;10.33;;
4885;SDS011;2457;51.788;6.136;2022-12-18T16:26:43;16.17;;;8.77;;
4885;SDS011;2457;51.788;6.136;2022-12-18T16:29:10;19.10;;;9.47;;
4885;SDS011;2457;51.788;6.136;2022-12-18T16:31:38;19.80;;;11.23;;